Time;durP1;ratioP1;P1;durP2;ratioP2;P2;SDS_P1;SDS_P2;PMS_P1;PMS_P2;Temp;Humidity;BMP_temperature;BMP_pressure;BME280_temperature;BME280_humidity;BME280_pressure;Samples;Min_cycle;Max_cycle;Signal;HPM_P1;HPM_P2
2020/12/15 00:01:34;;;;;;;20.23;12.18;;;;;;;4.00;79.80;101842.97;1776414;79;25773;-57
2020/12/15 00:04:03;;;;;;;22.62;12.85;;;;;;;3.96;79.93;101845.84;1807181;79;25620;-57
2020/12/15 00:06:34;;;;;;;27.55;12.47;;;;;;;3.94;79.89;101848.58;1808079;79;25643;-57
2020/12/15 00:09:04;;;;;;;23.40;13.25;;;;;;;3.93;79.76;101844.18;1787862;79;25660;-56
2020/12/15 00:11:32;;;;;;;26.52;13.78;;;;;;;3.91;79.95;101844.26;1774180;79;27533;-56
2020/12/15 00:14:00;;;;;;;31.20;14.60;;;;;;;3.89;79.71;101850.59;1764014;79;25418;-57
2020/12/15 00:16:30;;;;;;;37.95;15.38;;;;;;;3.83;79.47;101854.37;1763237;79;26515;-57
2020/12/15 00:18:58;;;;;;;35.35;17.17;;;;;;;3.73;79.32;101849.04;1760299;80;26279;-57
2020/12/15 00:21:28;;;;;;;38.15;16.25;;;;;;;3.64;79.40;101851.61;1759095;79;25648;-56
2020/12/15 00:23:56;;;;;;;30.12;15.20;;;;;;;3.64;79.75;101848.09;1762781;79;27520;-57
2020/12/15 00:26:25;;;;;;;30.00;14.15;;;;;;;3.63;79.79;101852.53;1762700;79;26570;-57
2020/12/15 00:28:54;;;;;;;28.65;13.93;;;;;;;3.61;79.88;101859.74;1762324;80;25732;-57
2020/12/15 00:31:22;;;;;;;33.45;14.65;;;;;;;3.66;80.32;101848.91;1762372;79;25589;-57
2020/12/15 00:33:51;;;;;;;28.92;14.40;;;;;;;3.72;80.67;101849.48;1781085;78;25680;-57
2020/12/15 00:36:21;;;;;;;26.77;13.48;;;;;;;3.73;79.97;101841.91;1762834;79;27319;-56
2020/12/15 00:38:49;;;;;;;28.07;13.72;;;;;;;3.67;80.01;101839.52;1762384;79;26229;-57
2020/12/15 00:41:17;;;;;;;21.68;12.30;;;;;;;3.68;80.14;101846.57;1782362;80;25639;-57
2020/12/15 00:43:48;;;;;;;26.27;13.32;;;;;;;3.68;79.91;101847.02;1725688;82;25669;-57
2020/12/15 00:46:18;;;;;;;29.12;14.50;;;;;;;3.65;79.93;101854.67;1702515;83;25739;-57
2020/12/15 00:48:48;;;;;;;29.25;13.50;;;;;;;3.69;80.11;101851.41;1755838;81;28442;-57
2020/12/15 00:51:19;;;;;;;26.12;14.07;;;;;;;3.71;80.16;101850.45;1734676;82;26116;-56
2020/12/15 00:53:49;;;;;;;30.65;14.45;;;;;;;3.74;80.08;101850.30;1711141;82;25664;-57
2020/12/15 00:56:19;;;;;;;24.90;12.88;;;;;;;3.74;79.96;101852.10;1762502;80;25700;-57
2020/12/15 00:58:47;;;;;;;24.00;12.78;;;;;;;3.78;80.06;101855.50;1762717;79;25693;-57
2020/12/15 01:01:15;;;;;;;20.82;11.28;;;;;;;3.81;79.89;101857.56;1762461;80;27974;-56
2020/12/15 01:03:44;;;;;;;23.75;13.65;;;;;;;3.82;80.11;101855.30;1771535;78;25695;-57
2020/12/15 01:06:14;;;;;;;25.23;13.53;;;;;;;3.83;79.69;101848.17;1793545;79;25705;-57
2020/12/15 01:08:43;;;;;;;28.30;13.20;;;;;;;3.81;79.76;101851.38;1768331;80;25478;-56
2020/12/15 01:11:13;;;;;;;25.48;13.25;;;;;;;3.84;79.67;101853.89;1769442;80;26144;-57
2020/12/15 01:13:43;;;;;;;27.45;13.60;;;;;;;3.78;79.40;101857.67;1772724;80;28581;-57
2020/12/15 01:16:12;;;;;;;28.60;16.07;;;;;;;3.77;79.78;101858.61;1791295;79;25673;-56
2020/12/15 01:18:43;;;;;;;29.23;15.10;;;;;;;3.76;79.75;101861.75;1793186;79;25723;-56
2020/12/15 01:21:13;;;;;;;32.40;15.35;;;;;;;3.74;79.73;101850.30;1793440;79;25828;-57
2020/12/15 01:23:45;;;;;;;25.80;14.00;;;;;;;3.73;79.93;101856.55;1768583;79;25629;-56
2020/12/15 01:26:12;;;;;;;27.60;14.28;;;;;;;3.74;79.72;101855.62;1763117;80;27509;-56
2020/12/15 01:28:41;;;;;;;31.90;14.47;;;;;;;3.70;79.60;101853.15;1762604;80;25678;-56
2020/12/15 01:31:10;;;;;;;27.58;14.55;;;;;;;3.69;79.83;101851.41;1762535;80;25691;-56
2020/12/15 01:33:52;;;;;;;28.70;14.43;;;;;;;3.67;79.85;101851.48;1807001;78;25622;-55
2020/12/15 01:36:32;;;;;;;25.23;13.78;;;;;;;3.67;79.85;101851.48;1771518;80;26099;-55
2020/12/15 01:39:03;;;;;;;24.52;12.68;;;;;;;3.65;79.86;101849.35;1774047;79;27667;-55
2020/12/15 01:41:33;;;;;;;24.05;11.97;;;;;;;3.60;79.59;101851.36;1772553;79;27019;-55
2020/12/15 01:44:04;;;;;;;28.23;13.70;;;;;;;3.53;79.61;101850.73;1791596;79;25610;-55
2020/12/15 01:46:34;;;;;;;29.67;14.47;;;;;;;3.53;79.84;101852.55;1773360;78;25699;-55
2020/12/15 01:49:04;;;;;;;30.65;13.60;;;;;;;3.52;79.87;101849.48;1773822;80;26067;-55
2020/12/15 01:51:34;;;;;;;27.65;13.45;;;;;;;3.52;79.90;101850.81;1773394;79;27611;-55
2020/12/15 01:54:05;;;;;;;24.07;13.28;;;;;;;3.52;79.94;101850.33;1773818;79;25707;-55
2020/12/15 01:56:35;;;;;;;24.55;12.73;;;;;;;3.49;79.98;101845.16;1773003;80;25664;-55
2020/12/15 01:59:05;;;;;;;24.02;12.98;;;;;;;3.46;79.95;101846.61;1771460;79;25678;-55
2020/12/15 02:01:46;;;;;;;23.12;13.32;;;;;;;3.44;80.21;101845.80;1773991;79;25683;-55
2020/12/15 02:04:16;;;;;;;22.90;13.10;;;;;;;3.47;80.28;101844.80;1772569;79;27365;-54
2020/12/15 02:06:56;;;;;;;23.25;11.83;;;;;;;3.52;80.22;101837.03;1838359;78;25559;-55
2020/12/15 02:09:27;;;;;;;20.80;12.40;;;;;;;3.49;80.31;101838.95;1797006;79;25647;-55
2020/12/15 02:11:57;;;;;;;23.73;12.45;;;;;;;3.48;80.16;101837.22;1798853;79;27592;-55
2020/12/15 02:14:26;;;;;;;22.65;12.68;;;;;;;3.48;80.20;101835.89;1813326;79;25699;-55
2020/12/15 02:16:57;;;;;;;24.87;13.62;;;;;;;3.48;80.27;101831.90;1812202;79;25578;-55
2020/12/15 02:19:27;;;;;;;22.82;12.73;;;;;;;3.50;80.29;101836.70;1793824;79;25642;-55
2020/12/15 02:22:02;;;;;;;22.32;12.55;;;;;;;3.54;80.49;101833.84;1781485;80;26140;-55
2020/12/15 02:24:31;;;;;;;24.92;14.07;;;;;;;3.55;80.45;101832.92;1795562;79;28363;-57
2020/12/15 02:27:01;;;;;;;25.17;13.70;;;;;;;3.60;80.48;101831.39;1804796;79;25475;-57
2020/12/15 02:29:31;;;;;;;25.37;13.03;;;;;;;3.64;80.53;101834.79;1781339;79;25765;-57
2020/12/15 02:31:59;;;;;;;23.90;13.22;;;;;;;3.68;80.48;101831.94;1781479;80;26101;-57
2020/12/15 02:34:29;;;;;;;25.02;12.80;;;;;;;3.69;80.39;101832.34;1782277;79;25688;-57
2020/12/15 02:36:57;;;;;;;23.18;12.28;;;;;;;3.70;80.13;101830.08;1789790;77;27584;-57
2020/12/15 02:39:26;;;;;;;23.95;12.45;;;;;;;3.73;80.25;101825.09;1787988;79;25737;-57
2020/12/15 02:41:58;;;;;;;22.25;12.18;;;;;;;3.75;80.14;101829.41;1779711;79;25851;-57
2020/12/15 02:44:27;;;;;;;31.02;14.25;;;;;;;3.76;80.18;101827.14;1783597;79;25685;-57
2020/12/15 02:46:58;;;;;;;26.75;13.75;;;;;;;3.80;80.26;101829.69;1786718;79;25667;-57
2020/12/15 02:49:27;;;;;;;45.88;23.65;;;;;;;3.82;80.19;101832.67;1796102;79;28476;-57
2020/12/15 02:51:57;;;;;;;27.80;14.05;;;;;;;3.86;80.27;101827.59;1792217;79;25746;-57
2020/12/15 02:54:35;;;;;;;28.87;14.55;;;;;;;3.88;79.83;101826.22;1817267;78;25528;-56
2020/12/15 02:57:03;;;;;;;29.80;14.63;;;;;;;3.77;79.56;101826.67;1773763;80;25644;-56
2020/12/15 02:59:32;;;;;;;29.95;15.30;;;;;;;3.76;79.86;101833.80;1774017;79;28482;-55
2020/12/15 03:02:01;;;;;;;28.80;14.50;;;;;;;3.77;79.84;101834.65;1773783;80;25676;-56
2020/12/15 03:04:30;;;;;;;32.45;15.63;;;;;;;3.74;79.79;101836.98;1774122;79;25725;-56
2020/12/15 03:06:58;;;;;;;28.83;14.23;;;;;;;3.72;79.72;101838.84;1773814;80;25880;-55
2020/12/15 03:09:32;;;;;;;29.80;14.43;;;;;;;3.73;79.82;101835.73;1772794;79;25681;-55
2020/12/15 03:12:03;;;;;;;26.73;15.48;;;;;;;3.67;79.47;101840.84;1792447;79;27640;-56
2020/12/15 03:14:32;;;;;;;28.20;14.80;;;;;;;3.63;79.49;101854.34;1805475;79;25721;-56
2020/12/15 03:17:01;;;;;;;32.35;16.45;;;;;;;3.57;79.55;101844.82;1805431;79;25591;-55
2020/12/15 03:19:30;;;;;;;28.52;14.35;;;;;;;3.53;79.63;101852.06;1803349;79;26057;-56
2020/12/15 03:21:59;;;;;;;34.05;14.30;;;;;;;3.48;79.62;101851.41;1788231;79;25837;-55
2020/12/15 03:24:28;;;;;;;44.77;16.12;;;;;;;3.42;79.55;101849.86;1796399;79;28557;-56
2020/12/15 03:26:56;;;;;;;32.75;15.15;;;;;;;3.35;79.84;101847.06;1805523;79;26056;-55
2020/12/15 03:29:24;;;;;;;37.28;16.62;;;;;;;3.33;79.96;101846.70;1801083;78;25713;-56
2020/12/15 03:31:52;;;;;;;32.55;15.45;;;;;;;3.34;80.17;101853.30;1757518;81;26102;-56
2020/12/15 03:34:24;;;;;;;30.37;15.68;;;;;;;3.36;80.30;101860.73;1753951;81;25655;-55
2020/12/15 03:36:52;;;;;;;27.05;14.90;;;;;;;3.38;80.47;101864.20;1737830;81;27544;-56
2020/12/15 03:39:20;;;;;;;30.77;14.58;;;;;;;3.40;80.37;101861.50;1742880;81;26041;-55
2020/12/15 03:41:49;;;;;;;25.43;12.55;;;;;;;3.42;80.49;101863.16;1727321;81;25696;-55
2020/12/15 03:44:19;;;;;;;32.50;15.80;;;;;;;3.39;80.36;101861.09;1726814;81;25603;-56
2020/12/15 03:46:58;;;;;;;25.43;14.33;;;;;;;3.40;80.33;101862.35;1725206;81;25639;-55
2020/12/15 03:49:27;;;;;;;26.40;13.68;;;;;;;3.39;80.38;101870.41;1727218;81;26760;-56
2020/12/15 03:51:57;;;;;;;27.15;13.95;;;;;;;3.39;80.46;101870.41;1735468;81;26194;-55
2020/12/15 03:54:33;;;;;;;29.55;13.10;;;;;;;3.40;80.46;101864.16;1768788;81;25733;-56
2020/12/15 03:57:21;;;;;;;26.47;14.97;;;;;;;3.41;80.47;101871.19;1760675;78;32416;-57
2020/12/15 04:00:07;;;;;;;28.62;14.58;;;;;;;3.41;80.28;101865.42;1741882;80;26153;-57
2020/12/15 04:02:43;;;;;;;25.88;13.88;;;;;;;3.38;80.23;101868.67;1742986;82;27365;-57
2020/12/15 04:05:13;;;;;;;28.30;13.48;;;;;;;3.34;80.33;101872.37;1741913;82;26165;-55
2020/12/15 04:07:43;;;;;;;31.75;15.03;;;;;;;3.25;80.66;101866.49;1713068;82;25684;-55
2020/12/15 04:10:12;;;;;;;28.98;15.05;;;;;;;3.17;80.83;101874.39;1711555;82;25763;-57
2020/12/15 04:12:43;;;;;;;28.92;16.05;;;;;;;3.04;81.32;101877.52;1745051;80;26513;-57
2020/12/15 04:15:11;;;;;;;26.27;14.68;;;;;;;3.02;81.28;101882.51;1744522;80;27585;-57
2020/12/15 04:17:40;;;;;;;31.25;16.32;;;;;;;3.00;81.61;101887.02;1744523;80;26070;-57
2020/12/15 04:20:10;;;;;;;23.83;13.15;;;;;;;2.95;81.74;101887.19;1749302;80;25651;-55
2020/12/15 04:22:40;;;;;;;25.43;14.87;;;;;;;2.94;81.82;101892.98;1774882;80;25674;-57
2020/12/15 04:25:08;;;;;;;32.25;15.53;;;;;;;2.93;81.84;101903.20;1775122;80;26162;-57
2020/12/15 04:27:38;;;;;;;25.12;14.40;;;;;;;2.91;81.96;101902.87;1774697;80;27546;-57
2020/12/15 04:30:07;;;;;;;28.30;14.80;;;;;;;2.90;82.20;101905.97;1774879;80;26108;-57
2020/12/15 04:32:35;;;;;;;30.80;16.02;;;;;;;2.91;82.03;101903.72;1772912;80;25666;-57
2020/12/15 04:35:05;;;;;;;26.35;14.07;;;;;;;2.95;82.20;101904.47;1759297;80;25659;-57
2020/12/15 04:37:34;;;;;;;27.82;14.65;;;;;;;3.01;82.14;101904.22;1744538;80;25763;-57
2020/12/15 04:40:04;;;;;;;36.42;18.50;;;;;;;3.00;81.96;101897.64;1757942;80;27979;-57
2020/12/15 04:42:35;;;;;;;29.75;16.02;;;;;;;3.02;82.01;101907.28;1744077;80;26186;-57
2020/12/15 04:45:04;;;;;;;29.07;14.95;;;;;;;3.11;82.01;101914.91;1744312;82;25704;-57
2020/12/15 04:47:46;;;;;;;31.07;14.23;;;;;;;3.18;81.97;101918.67;1769695;80;25744;-56
2020/12/15 04:50:18;;;;;;;28.42;14.78;;;;;;;3.19;81.66;101920.38;1709059;83;25680;-57
2020/12/15 04:52:57;;;;;;;26.55;13.62;;;;;;;3.15;81.54;101924.95;1708774;83;27555;-57
2020/12/15 04:55:50;;;;;;;30.77;14.83;;;;;;;3.17;81.52;101927.58;1838315;78;25497;-57
2020/12/15 04:58:23;;;;;;;24.80;14.68;;;;;;;3.12;81.63;101934.41;1813801;79;25697;-57
2020/12/15 05:00:52;;;;;;;31.93;15.63;;;;;;;3.09;81.60;101940.67;1813584;79;27522;-57
2020/12/15 05:03:22;;;;;;;28.07;14.65;;;;;;;3.13;81.77;101942.31;1801698;78;25633;-57
2020/12/15 05:05:51;;;;;;;33.28;14.83;;;;;;;3.15;81.64;101948.89;1746999;82;25735;-57
2020/12/15 05:08:20;;;;;;;29.12;15.40;;;;;;;3.10;81.51;101942.41;1777648;80;25674;-57
2020/12/15 05:10:56;;;;;;;31.07;15.80;;;;;;;3.09;81.52;101944.67;1719084;81;25954;-57
2020/12/15 05:13:31;;;;;;;31.47;15.50;;;;;;;3.10;81.62;101957.04;1746171;80;27616;-57
2020/12/15 05:15:59;;;;;;;32.05;15.05;;;;;;;3.15;81.91;101955.53;1747019;79;25484;-57
2020/12/15 05:19:06;;;;;;;34.95;18.67;;;;;;;3.19;81.81;101954.50;1820595;78;25479;-57
2020/12/15 05:21:36;;;;;;;31.97;16.45;;;;;;;3.19;81.81;101954.50;1772699;79;25729;-56
2020/12/15 05:24:09;;;;;;;34.73;18.98;;;;;;;3.23;81.91;101953.45;1773582;80;27554;-56
2020/12/15 05:26:50;;;;;;;37.28;18.55;;;;;;;3.32;81.74;101959.36;1867459;76;25660;-55
2020/12/15 05:29:21;;;;;;;32.10;16.65;;;;;;;3.29;81.75;101966.97;1751628;81;26040;-55
2020/12/15 05:32:02;;;;;;;27.93;15.28;;;;;;;3.38;81.65;101971.94;1830210;78;25502;-55
2020/12/15 05:34:33;;;;;;;32.20;19.00;;;;;;;3.30;81.30;101972.70;1775807;79;25695;-55
2020/12/15 05:37:19;;;;;;;33.98;17.25;;;;;;;3.24;81.16;101978.27;1773791;80;26818;-58
2020/12/15 05:39:47;;;;;;;28.95;16.48;;;;;;;3.19;81.36;101986.42;1773724;79;25670;-57
2020/12/15 05:42:18;;;;;;;31.70;17.17;;;;;;;3.16;81.35;101985.67;1772707;80;25655;-57
2020/12/15 05:44:46;;;;;;;32.53;16.60;;;;;;;3.12;81.35;101990.23;1773752;80;25636;-57
2020/12/15 05:47:22;;;;;;;31.40;16.42;;;;;;;3.14;81.39;101999.00;1796663;79;25449;-57
2020/12/15 05:50:07;;;;;;;35.13;18.77;;;;;;;3.21;81.39;101998.31;1838331;78;25617;-55
2020/12/15 05:52:34;;;;;;;37.85;17.50;;;;;;;3.18;81.47;102001.11;1813718;79;25679;-56
2020/12/15 05:55:09;;;;;;;36.38;19.45;;;;;;;3.18;81.38;102007.28;1813605;79;28464;-56
2020/12/15 05:57:37;;;;;;;;;;;;;;;3.20;81.53;102008.10;1816266;79;25707;-56
2020/12/15 06:00:11;;;;;;;36.13;17.92;;;;;;;3.24;81.72;102011.03;1813701;79;25707;-56
2020/12/15 06:02:42;;;;;;;35.10;17.05;;;;;;;3.32;81.82;102009.90;1813628;79;25613;-56
2020/12/15 06:05:10;;;;;;;27.82;16.67;;;;;;;3.37;81.72;102016.75;1813570;79;25789;-56
2020/12/15 06:07:43;;;;;;;35.85;18.42;;;;;;;3.45;81.72;102015.98;1813626;79;27514;-56
2020/12/15 06:10:11;;;;;;;33.80;18.23;;;;;;;3.56;81.87;102016.92;1813627;79;25436;-56
2020/12/15 06:12:40;;;;;;;33.55;17.95;;;;;;;3.65;81.95;102013.02;1813418;79;25648;-56
2020/12/15 06:15:08;;;;;;;44.10;23.67;;;;;;;3.75;81.88;102014.86;1813529;79;26090;-56
2020/12/15 06:17:36;;;;;;;37.75;19.05;;;;;;;3.81;81.23;102016.42;1813593;78;25640;-56
2020/12/15 06:20:05;;;;;;;27.10;15.85;;;;;;;3.77;80.58;102020.97;1780307;79;27563;-56
2020/12/15 06:22:35;;;;;;;27.20;14.13;;;;;;;3.72;80.37;102019.82;1779839;79;26487;-56
2020/12/15 06:25:05;;;;;;;29.40;13.90;;;;;;;3.65;79.86;102020.14;1810549;79;25638;-57
2020/12/15 06:27:36;;;;;;;34.35;17.85;;;;;;;3.62;80.12;102026.47;1810971;79;26387;-56
2020/12/15 06:30:07;;;;;;;28.32;14.98;;;;;;;3.68;80.73;102034.64;1810912;79;25663;-57
2020/12/15 06:32:35;;;;;;;31.57;16.00;;;;;;;3.77;80.66;102031.62;1812617;79;27522;-57
2020/12/15 06:35:11;;;;;;;37.78;19.42;;;;;;;3.86;80.97;102037.05;1813495;79;26078;-57
2020/12/15 06:37:36;;;;;;;38.75;18.55;;;;;;;3.96;81.11;102036.20;1815714;77;25653;-57
2020/12/15 06:40:06;;;;;;;35.05;20.25;;;;;;;4.04;81.07;102042.08;1815974;78;25688;-57
2020/12/15 06:42:36;;;;;;;30.17;17.77;;;;;;;4.13;80.90;102043.52;1800240;79;25443;-56
2020/12/15 06:45:08;;;;;;;37.67;19.37;;;;;;;4.18;80.76;102038.41;1807145;78;28491;-56
2020/12/15 06:47:37;;;;;;;34.55;19.27;;;;;;;4.19;80.49;102041.92;1817670;78;26257;-56
2020/12/15 06:50:15;;;;;;;33.95;20.95;;;;;;;4.20;79.93;102047.21;1816273;78;25648;-56
2020/12/15 06:52:43;;;;;;;37.65;20.08;;;;;;;4.19;79.89;102052.58;1803638;79;26185;-56
2020/12/15 06:55:11;;;;;;;48.23;24.45;;;;;;;4.19;79.86;102054.80;1803571;79;25639;-56
2020/12/15 06:57:41;;;;;;;46.25;22.95;;;;;;;4.19;79.45;102063.23;1803536;79;27531;-56
2020/12/15 07:00:12;;;;;;;31.87;17.17;;;;;;;4.17;79.66;102064.64;1821315;78;26173;-56
2020/12/15 07:02:45;;;;;;;35.83;19.67;;;;;;;4.15;79.46;102066.48;1754556;81;25728;-56
2020/12/15 07:05:26;;;;;;;41.18;21.77;;;;;;;4.13;79.52;102066.16;1777469;80;26872;-56
2020/12/15 07:07:57;;;;;;;33.42;19.90;;;;;;;4.11;79.38;102070.23;1785273;80;26065;-57
2020/12/15 07:10:28;;;;;;;31.82;19.15;;;;;;;4.11;79.27;102076.00;1778916;80;26820;-56
2020/12/15 07:12:59;;;;;;;32.48;18.40;;;;;;;4.07;79.04;102072.15;1740115;81;25738;-56
2020/12/15 07:15:29;;;;;;;40.50;20.10;;;;;;;4.07;79.13;102076.59;1737836;82;25668;-57
2020/12/15 07:18:02;;;;;;;45.78;21.62;;;;;;;4.04;79.19;102073.59;1752132;81;25902;-56
2020/12/15 07:20:30;;;;;;;33.13;20.60;;;;;;;4.03;79.20;102075.84;1747076;81;26148;-56
2020/12/15 07:22:58;;;;;;;35.15;18.52;;;;;;;4.04;79.31;102078.03;1759835;80;26790;-56
2020/12/15 07:25:26;;;;;;;33.48;17.32;;;;;;;4.05;79.24;102078.44;1737436;81;26097;-56
2020/12/15 07:27:58;;;;;;;26.97;14.85;;;;;;;4.06;78.92;102078.84;1783889;80;25699;-56
2020/12/15 07:30:26;;;;;;;28.42;16.50;;;;;;;4.12;78.87;102072.41;1737223;81;26157;-56
2020/12/15 07:32:53;;;;;;;34.67;15.60;;;;;;;4.11;78.71;102072.00;1785449;80;25753;-56
2020/12/15 07:35:24;;;;;;;26.77;14.23;;;;;;;4.17;79.10;102073.11;1785572;80;27542;-56
2020/12/15 07:37:56;;;;;;;31.27;15.53;;;;;;;4.22;79.10;102073.77;1758650;80;25682;-56
2020/12/15 07:40:29;;;;;;;25.08;14.25;;;;;;;4.27;79.36;102067.77;1768564;80;25663;-56
2020/12/15 07:43:01;;;;;;;26.80;15.05;;;;;;;4.38;79.55;102075.34;1766295;78;25844;-56
2020/12/15 07:45:34;;;;;;;28.55;15.23;;;;;;;4.47;79.42;102071.41;1733820;81;26107;-56
2020/12/15 07:48:06;;;;;;;28.20;14.75;;;;;;;4.55;79.44;102070.63;1722724;83;28584;-56
2020/12/15 07:50:34;;;;;;;29.02;14.25;;;;;;;4.66;79.21;102073.70;1737042;81;26204;-56
2020/12/15 07:53:11;;;;;;;29.98;15.83;;;;;;;4.78;79.39;102067.45;1737785;79;25611;-56
2020/12/15 07:55:39;;;;;;;27.58;14.83;;;;;;;4.82;78.63;102075.25;1761771;81;26446;-57
2020/12/15 07:58:16;;;;;;;31.73;15.53;;;;;;;4.89;78.50;102078.48;1760259;81;26699;-56
2020/12/15 08:00:45;;;;;;;31.07;15.88;;;;;;;4.90;77.52;102084.23;1758157;79;27594;-56
2020/12/15 08:03:13;;;;;;;26.15;13.95;;;;;;;4.93;77.84;102084.11;1731246;81;26555;-56
2020/12/15 08:05:42;;;;;;;24.87;15.08;;;;;;;4.98;77.80;102090.57;1740813;81;25695;-56
2020/12/15 08:08:13;;;;;;;28.20;15.60;;;;;;;4.97;77.45;102095.05;1737301;81;26113;-57
2020/12/15 08:10:40;;;;;;;31.73;15.60;;;;;;;4.98;77.22;102089.23;1705067;83;25731;-56
2020/12/15 08:13:08;;;;;;;30.50;16.73;;;;;;;4.96;76.85;102089.77;1744195;82;28411;-56
2020/12/15 08:15:39;;;;;;;27.98;15.32;;;;;;;4.99;77.22;102092.31;1744256;82;25686;-56
2020/12/15 08:18:10;;;;;;;25.82;14.85;;;;;;;5.01;76.83;102097.11;1727457;83;25735;-56
2020/12/15 08:20:41;;;;;;;29.82;16.42;;;;;;;4.97;76.38;102093.72;1744089;82;25608;-56
2020/12/15 08:23:13;;;;;;;35.68;17.05;;;;;;;4.94;76.54;102096.52;1798039;79;25742;-56
2020/12/15 08:25:45;;;;;;;27.87;15.08;;;;;;;5.00;76.92;102100.71;1798298;79;27525;-57
2020/12/15 08:28:21;;;;;;;28.52;15.78;;;;;;;5.04;76.72;102101.44;1727124;83;25725;-56
2020/12/15 08:30:56;;;;;;;31.62;15.95;;;;;;;5.04;76.50;102096.11;1706221;84;25688;-57
2020/12/15 08:33:25;;;;;;;;;;;;;;;5.04;76.29;102093.44;1737996;82;25983;-56
2020/12/15 08:35:57;;;;;;;30.52;14.78;;;;;;;5.00;75.49;102096.23;1735552;82;26354;-55
2020/12/15 08:38:27;;;;;;;25.70;15.78;;;;;;;5.01;76.16;102097.97;1757799;79;27530;-56
2020/12/15 08:40:59;;;;;;;28.38;15.28;;;;;;;5.06;75.88;102095.09;1714690;82;25722;-55
2020/12/15 08:43:28;;;;;;;25.48;15.45;;;;;;;5.12;75.58;102093.96;1741732;81;25732;-54
2020/12/15 08:45:58;;;;;;;33.50;14.23;;;;;;;5.18;75.16;102096.34;1757393;81;25679;-56
2020/12/15 08:48:26;;;;;;;22.87;12.18;;;;;;;5.24;75.75;102092.09;1735702;82;25729;-56
2020/12/15 08:50:55;;;;;;;22.07;14.68;;;;;;;5.29;75.10;102089.22;1757124;80;26792;-57
2020/12/15 08:53:23;;;;;;;24.30;13.28;;;;;;;5.35;75.62;102094.72;1770426;80;25725;-56
2020/12/15 08:55:50;;;;;;;22.98;12.45;;;;;;;5.42;74.83;102086.38;1752785;80;25702;-56
2020/12/15 08:58:18;;;;;;;22.32;11.85;;;;;;;5.46;74.77;102093.77;1757304;80;25729;-56
2020/12/15 09:00:47;;;;;;;21.85;13.13;;;;;;;5.53;74.92;102089.88;1780836;80;25599;-57
2020/12/15 09:03:18;;;;;;;20.15;12.73;;;;;;;5.56;74.92;102092.41;1780693;80;28409;-56
2020/12/15 09:05:58;;;;;;;27.17;12.05;;;;;;;5.63;75.21;102089.84;1749848;81;25683;-57
2020/12/15 09:08:29;;;;;;;20.12;12.45;;;;;;;5.70;74.93;102086.43;1766072;80;25694;-55
2020/12/15 09:10:58;;;;;;;28.12;13.30;;;;;;;5.75;74.51;102081.72;1767213;80;25695;-55
2020/12/15 09:13:28;;;;;;;18.75;11.80;;;;;;;5.83;74.63;102089.38;1764815;80;26102;-55
2020/12/15 09:15:57;;;;;;;19.90;12.88;;;;;;;5.87;74.39;102082.09;1771827;80;28487;-56
2020/12/15 09:18:37;;;;;;;24.98;13.88;;;;;;;5.93;74.38;102074.66;1749615;82;26127;-56
2020/12/15 09:21:12;;;;;;;22.62;12.85;;;;;;;6.00;73.95;102074.38;1763507;80;25425;-56
2020/12/15 09:23:46;;;;;;;22.10;12.85;;;;;;;6.05;73.76;102071.89;1772976;80;25784;-57
2020/12/15 09:26:23;;;;;;;24.72;14.43;;;;;;;6.07;73.72;102071.35;1750094;80;25672;-56
2020/12/15 09:28:56;;;;;;;25.27;12.43;;;;;;;6.05;72.67;102068.36;1755745;80;27524;-56
2020/12/15 09:31:27;;;;;;;21.52;13.20;;;;;;;6.03;73.07;102064.41;1721701;83;26593;-56
2020/12/15 09:34:07;;;;;;;35.70;14.23;;;;;;;6.03;72.83;102067.08;1732443;81;25683;-56
2020/12/15 09:36:42;;;;;;;34.87;14.53;;;;;;;6.02;72.33;102063.16;1736603;81;25738;-56
2020/12/15 09:39:17;;;;;;;26.55;14.20;;;;;;;5.98;72.02;102062.41;1756872;80;25699;-56
2020/12/15 09:41:52;;;;;;;24.57;14.18;;;;;;;5.94;72.42;102063.48;1757038;79;28553;-56
2020/12/15 09:44:29;;;;;;;25.23;13.83;;;;;;;5.92;72.59;102072.03;1755953;81;25636;-56
2020/12/15 09:47:01;;;;;;;;;;;;;;;5.90;72.67;102069.94;1755001;80;25517;-57
2020/12/15 09:49:31;;;;;;;20.95;13.22;;;;;;;5.92;73.24;102070.25;1752358;80;25699;-56
2020/12/15 09:52:05;;;;;;;21.73;13.05;;;;;;;6.01;73.07;102072.11;1781491;79;25729;-56
2020/12/15 09:54:34;;;;;;;28.83;15.20;;;;;;;6.02;72.47;102072.52;1807207;79;27542;-56
2020/12/15 09:57:06;;;;;;;27.37;13.60;;;;;;;6.01;72.16;102069.44;1810714;79;25429;-57
2020/12/15 09:59:39;;;;;;;27.58;16.55;;;;;;;6.00;72.43;102069.04;1755351;79;25739;-56
2020/12/15 10:02:09;;;;;;;35.92;18.23;;;;;;;5.97;72.41;102064.69;1779875;79;25723;-58
2020/12/15 10:04:40;;;;;;;24.77;13.95;;;;;;;5.91;72.47;102069.00;1793396;79;25646;-56
2020/12/15 10:07:14;;;;;;;22.90;14.30;;;;;;;5.93;72.66;102063.97;1778227;80;28488;-56
2020/12/15 10:09:57;;;;;;;26.40;15.32;;;;;;;5.95;72.70;102067.89;1732272;82;26859;-56
2020/12/15 10:12:24;;;;;;;23.35;13.48;;;;;;;5.95;72.76;102059.43;1747080;82;25772;-57
2020/12/15 10:14:57;;;;;;;23.87;13.93;;;;;;;5.98;72.74;102059.74;1747522;82;25967;-56
2020/12/15 10:17:29;;;;;;;27.17;14.75;;;;;;;6.01;72.66;102056.94;1716307;82;25677;-56
2020/12/15 10:20:02;;;;;;;29.10;16.97;;;;;;;6.05;72.42;102051.84;1747555;81;26621;-56
2020/12/15 10:22:35;;;;;;;23.47;13.60;;;;;;;6.04;72.24;102046.59;1756660;80;25656;-56
2020/12/15 10:25:08;;;;;;;21.97;14.45;;;;;;;6.11;72.32;102047.53;1747083;80;25675;-57
2020/12/15 10:27:39;;;;;;;22.73;14.00;;;;;;;6.15;72.20;102050.91;1694445;80;25581;-57
2020/12/15 10:30:11;;;;;;;25.90;12.47;;;;;;;6.20;72.29;102050.69;1752637;80;27155;-57
2020/12/15 10:32:44;;;;;;;22.13;13.22;;;;;;;6.22;71.98;102048.81;1774363;80;28445;-56
2020/12/15 10:35:33;;;;;;;24.02;12.47;;;;;;;6.26;72.35;102040.56;1772854;79;26622;-56
2020/12/15 10:38:27;;;;;;;23.12;13.18;;;;;;;6.35;72.15;102042.38;1770188;79;25812;-56
2020/12/15 10:41:07;;;;;;;21.75;12.50;;;;;;;6.38;71.87;102039.56;1778031;79;25651;-55
2020/12/15 10:43:40;;;;;;;21.87;12.93;;;;;;;6.42;71.93;102046.02;1740095;80;26766;-56
2020/12/15 10:46:14;;;;;;;23.85;14.70;;;;;;;6.47;72.05;102039.55;1774907;79;28542;-56
2020/12/15 10:48:45;;;;;;;25.30;15.00;;;;;;;6.51;72.16;102038.46;1789015;79;25985;-56
2020/12/15 10:51:19;;;;;;;21.93;14.50;;;;;;;6.52;71.62;102038.38;1794459;78;25434;-57
2020/12/15 10:53:50;;;;;;;27.52;15.13;;;;;;;6.51;71.12;102041.98;1730869;81;25722;-56
2020/12/15 10:56:22;;;;;;;22.30;13.70;;;;;;;6.49;71.21;102041.68;1799009;78;25780;-56
2020/12/15 10:59:01;;;;;;;27.17;13.22;;;;;;;6.50;71.21;102043.41;1832396;78;27528;-57
2020/12/15 11:01:32;;;;;;;22.30;13.62;;;;;;;6.48;70.58;102040.83;1832046;78;26144;-56
2020/12/15 11:04:02;;;;;;;28.15;15.98;;;;;;;6.42;70.60;102035.77;1799018;78;25852;-56
2020/12/15 11:06:36;;;;;;;23.80;13.40;;;;;;;6.36;70.47;102045.00;1747247;81;25810;-56
2020/12/15 11:09:06;;;;;;;22.42;14.73;;;;;;;6.31;70.88;102037.66;1789277;79;25663;-56
2020/12/15 11:11:35;;;;;;;24.65;15.98;;;;;;;6.25;70.33;102039.31;1780953;80;27518;-56
2020/12/15 11:14:04;;;;;;;25.70;14.47;;;;;;;6.19;70.37;102043.16;1771348;79;25666;-56
2020/12/15 11:16:34;;;;;;;23.95;13.80;;;;;;;6.17;70.94;102039.69;1791438;79;25736;-56
2020/12/15 11:19:04;;;;;;;31.07;14.45;;;;;;;6.17;71.05;102029.48;1812808;79;25693;-56
2020/12/15 11:21:32;;;;;;;30.60;14.70;;;;;;;6.17;70.39;102035.68;1811307;78;26221;-55
2020/12/15 11:24:01;;;;;;;29.40;15.10;;;;;;;6.16;71.27;102032.61;1805222;78;27525;-57
2020/12/15 11:26:29;;;;;;;23.73;14.73;;;;;;;6.17;71.01;102027.66;1798662;79;25633;-56
2020/12/15 11:28:58;;;;;;;26.40;13.85;;;;;;;6.15;70.73;102032.70;1735216;81;26256;-55
2020/12/15 11:31:26;;;;;;;27.37;14.20;;;;;;;6.16;71.24;102037.95;1806216;78;25756;-56
2020/12/15 11:33:54;;;;;;;22.27;14.60;;;;;;;6.15;70.83;102040.71;1812004;78;26046;-56
2020/12/15 11:36:23;;;;;;;20.85;13.15;;;;;;;6.13;71.39;102038.12;1812890;79;27604;-56